Terminal Aerodrome Forecast
Issued by NWS

Home | Current Version | Previous Version | Text Only | Print | Product List | Glossary On
Versions: 1 2 3 4 5 6 7 8 9 10 11 12 13 14 15 16 17 18 19 20 21
083
FTAK31 PAJN 231732
TAFAGY
TAF
PAGY 231732Z 2318/2418 02008KT P6SM BKN090
     FM232100 02015G25KT P6SM BKN120
     FM240600 04012KT P6SM SCT120
     FM241200 04015G25KT P6SM BKN220
     FM241700 05012KT P6SM VCSH OVC060
      AMD LTD TO CLD VIS AND WIND=

USA.gov is the U.S. government's official web portal to all federal, state and local government web resources and services.